Strona główna
METAR-TAF:

METAR-TAF

Lotnisko :

Port lotniczy Teesside

Durham, Anglia

Szerokość geograficzna: 54-31N, Długość geograficzna: 001-25W, wysokość: 37 m

Aktualna obserwacja pogody

Raport powstał 3 godziny i 38 minut temu, godzina 21:50 UTC
Wiatr 4 kt od południowy zachód
Temperatura 5°C
Wilgotność 87%
Ciśnienie 1017 hPa
Widzialność 10 km lub więcej
Brak chmur poniżej 1500 m i brak chmur cumulonimbus

METAR: EGNV 302150Z 22004KT CAVOK 05/03 Q1017

czas: 01:28 (01:28 UTC)

Prognoza

Raport powstał 8 godziny i 27 minut temu, godzina 17:01 UTC
Prognoza ważna od 30 godzina 18 UTC do 30 godzina 22 UTC
Wiatr 5 kt od zachodnio-południowy zachód
Widzialność 10 km lub więcej
Rozproszone chmury na wysokości 2000 ft

TAF: EGNV 301701Z 3018/3022 25005KT 9999 SCT020

Obserwacja i prognoza pogody dla ponad 4000 lotnisk (raport METAR i TAF).

Dostępne stacje oznaczono żółtymi i czerwonymi punktami na mapie.

Najedź kursorem aby zobaczyć nazwę stacji.

Kliknij aby zobaczyć obserwacje i prognozy pogody.

Aby zmienić mapę: kliknij na zielony przycisk z czarnym krzyżykiem, aby powiększyć; na zielony przycisk z myślnikiem, aby pomniejszyć; na zielone strzałki, aby przejść do map sąsiednich.


METAR-TAF: